createdAt,value
2019-01-04T00:01:45.503Z,24.97
2019-01-04T00:04:26.586Z,24.27
2019-01-04T00:07:08.166Z,21.73
2019-01-04T00:09:48.963Z,18.03
2019-01-04T00:12:29.806Z,16.97
2019-01-04T00:15:11.073Z,24.37
2019-01-04T00:17:51.970Z,22.40
2019-01-04T00:20:33.116Z,16.57
2019-01-04T00:23:14.460Z,19.43
2019-01-04T00:25:56.027Z,26.57
2019-01-04T00:28:36.823Z,15.73
2019-01-04T00:31:17.713Z,23.73
2019-01-04T00:33:59.193Z,17.10
2019-01-04T00:36:40.111Z,16.53
2019-01-04T00:39:20.051Z,19.77
2019-01-04T00:42:01.317Z,17.93
2019-01-04T00:44:42.923Z,20.07
2019-01-04T00:47:24.738Z,20.27
2019-01-04T00:50:06.219Z,17.13
2019-01-04T00:52:46.733Z,18.40
2019-01-04T00:55:28.171Z,15.17
2019-01-04T00:58:09.283Z,17.07
2019-01-04T01:00:50.450Z,20.13
2019-01-04T01:04:13.188Z,14.57
2019-01-04T01:06:54.098Z,18.13
2019-01-04T01:09:35.107Z,19.30
2019-01-04T01:12:16.419Z,17.37
2019-01-04T01:14:57.904Z,18.37
2019-01-04T01:17:39.455Z,16.13
2019-01-04T01:20:20.296Z,16.37
2019-01-04T01:23:01.983Z,17.90
2019-01-04T01:25:43.417Z,26.37
2019-01-04T01:32:11.492Z,19.03
2019-01-04T01:34:53.147Z,17.03
2019-01-04T01:37:34.758Z,20.67
2019-01-04T01:40:15.920Z,18.43
2019-01-04T01:42:57.557Z,18.37
2019-01-04T01:45:38.557Z,15.27
2019-01-04T01:48:20.106Z,18.80
2019-01-04T01:51:01.724Z,19.17
2019-01-04T01:53:42.512Z,19.77
2019-01-04T01:56:24.087Z,20.13
2019-01-04T01:59:04.748Z,19.33
2019-01-04T02:01:46.191Z,18.13
2019-01-04T02:04:27.130Z,20.20
2019-01-04T02:07:07.969Z,20.47
2019-01-04T02:09:48.833Z,17.50
2019-01-04T02:12:30.459Z,19.27
2019-01-04T02:15:11.770Z,22.90
2019-01-04T02:17:52.740Z,16.37
2019-01-04T02:20:34.286Z,20.00
2019-01-04T02:23:16.220Z,26.03
2019-01-04T02:25:57.871Z,23.80
2019-01-04T02:28:39.273Z,19.27
2019-01-04T02:31:20.457Z,22.73
2019-01-04T02:34:01.579Z,17.80
2019-01-04T02:36:42.119Z,18.97
2019-01-04T02:39:23.461Z,21.00
2019-01-04T02:42:04.523Z,19.57
2019-01-04T02:44:45.816Z,15.97
2019-01-04T02:47:26.650Z,16.80
2019-01-04T02:50:08.655Z,15.93
2019-01-04T02:52:49.819Z,20.27
2019-01-04T02:55:31.478Z,20.77
2019-01-04T02:58:13.025Z,18.43
2019-01-04T03:00:54.016Z,17.43
2019-01-04T03:03:34.822Z,22.40
2019-01-04T03:06:16.548Z,22.70
2019-01-04T03:08:57.677Z,19.17
2019-01-04T03:11:38.234Z,19.60
2019-01-04T03:14:19.805Z,23.10
2019-01-04T03:17:01.418Z,26.60
2019-01-04T03:19:43.028Z,32.07
2019-01-04T03:22:23.579Z,23.13
2019-01-04T03:25:04.191Z,22.83
2019-01-04T03:27:43.596Z,21.20
2019-01-04T03:30:32.559Z,18.93
2019-01-04T03:33:14.109Z,24.33
2019-01-04T03:35:55.984Z,24.20
2019-01-04T03:38:37.335Z,28.87
2019-01-04T03:41:18.791Z,29.27
2019-01-04T03:43:58.356Z,25.33
2019-01-04T03:46:46.887Z,26.33
2019-01-04T03:49:28.170Z,25.40
2019-01-04T03:52:09.025Z,22.40
2019-01-04T03:54:50.638Z,28.83
2019-01-04T03:57:32.326Z,31.43
2019-01-04T04:00:13.087Z,26.07
2019-01-04T04:02:54.565Z,35.77
2019-01-04T04:05:35.505Z,36.57
2019-01-04T04:08:17.074Z,35.53
2019-01-04T04:10:57.879Z,24.37
2019-01-04T04:13:37.262Z,25.93
2019-01-04T04:16:25.807Z,20.97
2019-01-04T04:19:07.109Z,26.77
2019-01-04T04:21:48.203Z,22.17
2019-01-04T04:24:29.800Z,29.83
2019-01-04T04:27:11.360Z,28.40
2019-01-04T04:29:52.663Z,28.73
2019-01-04T04:32:33.577Z,22.37
2019-01-04T04:35:13.209Z,26.63
2019-01-04T04:37:54.024Z,22.93
2019-01-04T04:40:34.978Z,26.27
2019-01-04T04:43:16.567Z,30.37
2019-01-04T04:45:58.525Z,30.53
2019-01-04T04:48:40.115Z,26.27
2019-01-04T04:51:21.163Z,29.23
2019-01-04T04:54:02.864Z,26.30
2019-01-04T04:56:44.458Z,24.93
2019-01-04T04:59:24.977Z,29.43
2019-01-04T05:02:04.820Z,27.40
2019-01-04T05:04:45.410Z,27.77
2019-01-04T05:07:26.991Z,22.50
2019-01-04T05:10:07.566Z,22.00
2019-01-04T05:12:48.412Z,25.00
2019-01-04T05:15:30.143Z,27.70
2019-01-04T05:18:11.475Z,29.57
2019-01-04T05:20:53.108Z,26.87
2019-01-04T05:23:35.058Z,26.63
2019-01-04T05:26:16.260Z,22.53
2019-01-04T05:28:57.867Z,27.13
2019-01-04T05:31:38.403Z,24.23
2019-01-04T05:34:19.357Z,25.60
2019-01-04T05:37:00.997Z,26.03
2019-01-04T05:39:42.539Z,26.73
2019-01-04T05:42:23.799Z,26.47
2019-01-04T05:45:05.709Z,29.67
2019-01-04T05:47:47.221Z,27.27
2019-01-04T05:50:28.282Z,23.87
2019-01-04T05:53:08.988Z,35.27
2019-01-04T05:55:49.554Z,24.30
2019-01-04T05:58:30.499Z,21.13
2019-01-04T06:01:11.751Z,24.60
2019-01-04T06:03:53.405Z,23.67
2019-01-04T06:06:34.879Z,24.70
2019-01-04T06:09:16.934Z,23.07
2019-01-04T06:11:58.064Z,24.27
2019-01-04T06:14:39.088Z,27.27
2019-01-04T06:17:19.912Z,32.30
2019-01-04T06:19:59.594Z,27.37
2019-01-04T06:22:47.861Z,33.97
2019-01-04T06:25:29.158Z,38.80
2019-01-04T06:28:09.327Z,28.43
2019-01-04T06:30:50.390Z,29.83
2019-01-04T06:33:31.241Z,27.97
2019-01-04T06:36:12.411Z,24.93
2019-01-04T06:38:53.732Z,27.00
2019-01-04T06:41:35.103Z,28.70
2019-01-04T06:44:16.381Z,26.30
2019-01-04T06:46:58.005Z,26.27
2019-01-04T06:49:39.692Z,26.43
2019-01-04T06:52:21.212Z,24.07
2019-01-04T06:55:44.146Z,23.03
2019-01-04T06:58:32.787Z,29.80
2019-01-04T07:01:14.296Z,31.77
2019-01-04T07:03:55.258Z,30.20
2019-01-04T07:06:36.989Z,29.27
2019-01-04T07:09:18.756Z,34.73
2019-01-04T07:12:00.284Z,33.00
2019-01-04T07:14:41.774Z,30.60
2019-01-04T07:17:22.475Z,28.87
2019-01-04T07:20:03.454Z,28.23
2019-01-04T07:22:44.547Z,29.60
2019-01-04T07:25:26.139Z,31.67
2019-01-04T07:28:07.539Z,27.47
2019-01-04T07:30:49.085Z,30.10
2019-01-04T07:33:28.562Z,35.33
2019-01-04T07:36:09.497Z,35.83
2019-01-04T07:38:50.401Z,39.40
2019-01-04T07:41:32.078Z,41.73
2019-01-04T07:44:13.367Z,37.30
2019-01-04T07:46:54.574Z,52.03
2019-01-04T07:49:35.595Z,39.97
2019-01-04T07:52:16.743Z,42.20
2019-01-04T07:54:58.441Z,34.13
2019-01-04T07:57:38.996Z,28.00
2019-01-04T08:00:20.088Z,59.30
2019-01-04T08:03:01.183Z,36.97
2019-01-04T08:05:41.754Z,30.50
2019-01-04T08:08:23.086Z,31.83
2019-01-04T08:11:03.941Z,40.87
2019-01-04T08:13:45.705Z,32.03
2019-01-04T08:16:27.259Z,40.60
2019-01-04T08:19:06.684Z,42.70
2019-01-04T08:21:54.937Z,45.67
2019-01-04T08:24:36.629Z,49.10
2019-01-04T08:27:17.495Z,48.80
2019-01-04T08:29:57.051Z,44.53
2019-01-04T08:32:45.338Z,36.87
2019-01-04T08:35:26.014Z,39.70
2019-01-04T08:38:07.116Z,39.57
2019-01-04T08:40:48.483Z,40.17
2019-01-04T08:43:30.044Z,35.30
2019-01-04T08:46:11.781Z,38.03
2019-01-04T08:48:53.430Z,43.83
2019-01-04T08:51:34.547Z,40.60
2019-01-04T08:54:16.256Z,45.90
2019-01-04T08:56:55.853Z,47.33
2019-01-04T08:59:37.592Z,38.73
2019-01-04T09:02:18.756Z,34.33
2019-01-04T09:04:59.397Z,35.73
2019-01-04T09:07:39.025Z,41.53
2019-01-04T09:10:28.040Z,47.33
2019-01-04T09:13:08.040Z,52.27
2019-01-04T09:15:49.614Z,52.97
2019-01-04T09:18:31.454Z,44.13
2019-01-04T09:21:13.014Z,45.77
2019-01-04T09:23:54.356Z,48.80
2019-01-04T09:26:34.956Z,57.43
2019-01-04T09:29:16.703Z,52.50
2019-01-04T09:31:57.913Z,40.60
2019-01-04T09:34:39.648Z,41.13
2019-01-04T09:37:21.547Z,37.13
2019-01-04T09:40:02.396Z,42.13
2019-01-04T09:42:43.484Z,49.50
2019-01-04T09:45:25.238Z,37.37
2019-01-04T09:48:06.480Z,31.83
2019-01-04T09:50:47.570Z,35.37
2019-01-04T09:53:28.819Z,35.17
2019-01-04T09:56:10.062Z,39.83
2019-01-04T09:58:51.757Z,41.87
2019-01-04T10:01:33.307Z,43.10
2019-01-04T10:04:14.253Z,38.87
2019-01-04T10:06:55.370Z,35.17
2019-01-04T10:09:37.027Z,39.17
2019-01-04T10:12:18.158Z,40.10
2019-01-04T10:15:00.169Z,39.83
2019-01-04T10:17:41.391Z,41.70
2019-01-04T10:20:21.975Z,40.90
2019-01-04T10:23:02.989Z,35.40
2019-01-04T10:25:45.021Z,34.60
2019-01-04T10:28:26.195Z,37.47
2019-01-04T10:31:07.339Z,38.53
2019-01-04T10:33:48.380Z,33.17
2019-01-04T10:36:29.464Z,32.43
2019-01-04T10:39:09.285Z,30.87
2019-01-04T10:41:49.914Z,26.63
2019-01-04T10:44:30.877Z,30.70
2019-01-04T10:47:11.792Z,31.73
2019-01-04T10:49:53.120Z,30.50
2019-01-04T10:52:34.250Z,30.47
2019-01-04T10:55:16.014Z,23.97
2019-01-04T10:57:57.358Z,31.80
2019-01-04T11:00:39.225Z,26.67
2019-01-04T11:03:20.472Z,26.10
2019-01-04T11:06:01.383Z,24.20
2019-01-04T11:08:42.403Z,29.57
2019-01-04T11:11:23.645Z,33.93
2019-01-04T11:14:04.842Z,31.83
2019-01-04T11:16:46.205Z,31.73
2019-01-04T11:19:27.199Z,28.27
2019-01-04T11:22:08.163Z,26.23
2019-01-04T11:24:49.092Z,26.10
2019-01-04T11:27:30.211Z,29.80
2019-01-04T11:30:11.691Z,26.23
2019-01-04T11:32:52.270Z,31.73
2019-01-04T11:35:33.630Z,28.70
2019-01-04T11:38:15.389Z,25.93
2019-01-04T11:40:57.081Z,27.00
2019-01-04T11:43:38.403Z,24.37
2019-01-04T11:46:19.139Z,32.10
2019-01-04T11:49:00.150Z,26.30
2019-01-04T11:51:41.261Z,34.87
2019-01-04T11:54:22.215Z,25.97
2019-01-04T11:57:03.630Z,26.77
2019-01-04T11:59:44.078Z,30.13
2019-01-04T12:02:26.466Z,26.10
2019-01-04T12:05:06.168Z,25.77
2019-01-04T12:07:46.791Z,30.50
2019-01-04T12:10:28.361Z,25.53
2019-01-04T12:13:09.699Z,34.20
2019-01-04T12:15:50.633Z,27.17
2019-01-04T12:18:32.351Z,29.90
2019-01-04T12:21:13.616Z,27.63
2019-01-04T12:23:54.918Z,30.43
2019-01-04T12:26:36.100Z,24.57
2019-01-04T12:29:17.734Z,28.73
2019-01-04T12:31:58.695Z,29.27
2019-01-04T12:34:39.974Z,30.67
2019-01-04T12:37:20.558Z,27.13
2019-01-04T12:40:02.020Z,27.13
2019-01-04T12:42:43.211Z,24.97
2019-01-04T12:45:25.185Z,28.87
2019-01-04T12:48:06.695Z,29.93
2019-01-04T12:50:47.266Z,37.17
2019-01-04T12:53:35.856Z,31.57
2019-01-04T12:56:16.944Z,28.17
2019-01-04T12:58:58.709Z,55.70
2019-01-04T13:01:39.869Z,80.67
2019-01-04T13:04:21.287Z,34.80
2019-01-04T13:07:01.827Z,65.77
2019-01-04T13:09:42.451Z,54.73
2019-01-04T13:12:24.054Z,43.20
2019-01-04T13:15:04.568Z,29.40
2019-01-04T13:17:45.707Z,28.90
2019-01-04T13:20:27.166Z,29.83
2019-01-04T13:23:08.605Z,22.73
2019-01-04T13:25:49.849Z,23.17
2019-01-04T13:28:31.405Z,26.50
2019-01-04T13:31:12.820Z,26.63
2019-01-04T13:33:53.985Z,27.70
2019-01-04T13:36:35.732Z,29.60
2019-01-04T13:39:17.340Z,29.53
2019-01-04T13:41:58.624Z,28.33
2019-01-04T13:44:39.405Z,27.30
2019-01-04T13:47:20.905Z,32.97
2019-01-04T13:50:02.660Z,36.50
2019-01-04T13:52:43.955Z,39.00
2019-01-04T13:55:24.778Z,32.13
2019-01-04T13:58:06.536Z,32.87
2019-01-04T14:00:47.975Z,41.47
2019-01-04T14:03:29.929Z,48.90
2019-01-04T14:06:11.540Z,51.60
2019-01-04T14:08:53.215Z,38.87
2019-01-04T14:11:34.382Z,44.67
2019-01-04T14:14:15.864Z,54.03
2019-01-04T14:16:55.877Z,53.40
2019-01-04T14:19:44.571Z,45.53
2019-01-04T14:22:26.630Z,47.70
2019-01-04T14:25:07.644Z,37.97
2019-01-04T14:27:48.648Z,39.13
2019-01-04T14:30:28.664Z,43.43
2019-01-04T14:33:10.079Z,40.67
2019-01-04T14:35:51.482Z,41.53
2019-01-04T14:38:32.684Z,49.20
2019-01-04T14:41:13.403Z,34.97
2019-01-04T14:43:54.872Z,33.37
2019-01-04T14:46:35.795Z,33.47
2019-01-04T14:49:17.223Z,37.57
2019-01-04T14:51:58.430Z,37.57
2019-01-04T14:54:39.791Z,40.07
2019-01-04T14:57:20.664Z,35.00
2019-01-04T15:00:01.678Z,40.23
2019-01-04T15:02:42.912Z,35.20
2019-01-04T15:05:24.021Z,42.73
2019-01-04T15:08:06.139Z,46.97
2019-01-04T15:10:47.409Z,42.03
2019-01-04T15:13:29.100Z,40.03
2019-01-04T15:16:09.992Z,41.40
2019-01-04T15:18:51.274Z,45.60
2019-01-04T15:21:33.027Z,35.87
2019-01-04T15:24:14.307Z,39.77
2019-01-04T15:26:55.227Z,38.97
2019-01-04T15:29:36.156Z,37.10
2019-01-04T15:32:17.908Z,34.50
2019-01-04T15:34:59.135Z,43.23
2019-01-04T15:37:40.713Z,35.53
2019-01-04T15:40:22.063Z,41.40
2019-01-04T15:43:03.779Z,42.17
2019-01-04T15:45:44.624Z,39.50
2019-01-04T15:48:26.181Z,40.27
2019-01-04T15:51:07.565Z,47.17
2019-01-04T15:53:49.206Z,43.57
2019-01-04T15:56:30.472Z,42.17
2019-01-04T15:59:12.415Z,43.57
2019-01-04T16:01:53.640Z,36.43
2019-01-04T16:04:34.249Z,35.97
2019-01-04T16:07:16.153Z,48.57
2019-01-04T16:09:57.927Z,52.47
2019-01-04T16:12:38.937Z,48.70
2019-01-04T16:15:20.888Z,49.97
2019-01-04T16:18:02.325Z,78.43
2019-01-04T16:20:43.571Z,68.13
2019-01-04T16:23:25.355Z,57.87
2019-01-04T16:26:07.072Z,59.00
2019-01-04T16:28:48.025Z,48.07
2019-01-04T16:31:27.880Z,52.87
2019-01-04T16:37:09.932Z,40.07
2019-01-04T16:39:51.697Z,41.40
2019-01-04T16:42:32.792Z,40.00
2019-01-04T16:45:13.211Z,39.90
2019-01-04T16:48:01.981Z,38.63
2019-01-04T16:50:43.026Z,37.20
2019-01-04T16:53:24.390Z,35.83
2019-01-04T16:56:04.026Z,32.80
2019-01-04T16:58:52.332Z,36.97
2019-01-04T17:01:34.375Z,42.47
2019-01-04T17:04:15.893Z,44.20
2019-01-04T17:06:57.360Z,39.23
2019-01-04T17:09:38.589Z,43.53
2019-01-04T17:12:19.469Z,46.83
2019-01-04T17:15:01.342Z,48.10
2019-01-04T17:17:43.113Z,41.80
2019-01-04T17:20:24.383Z,46.03
2019-01-04T17:23:06.543Z,47.80
2019-01-04T17:25:46.273Z,40.30
2019-01-04T17:28:25.889Z,42.17
2019-01-04T17:31:06.645Z,40.27
2019-01-04T17:33:48.368Z,50.57
2019-01-04T17:36:29.434Z,48.33
2019-01-04T17:39:10.007Z,46.97
2019-01-04T17:41:58.885Z,39.57
2019-01-04T17:44:40.301Z,43.83
2019-01-04T17:47:22.089Z,54.73
2019-01-04T17:50:03.853Z,68.53
2019-01-04T17:52:45.013Z,82.00
2019-01-04T17:55:25.046Z,84.73
2019-01-04T17:58:13.515Z,101.73
2019-01-04T18:00:55.069Z,162.13
2019-01-04T18:03:36.493Z,143.57
2019-01-04T18:06:17.173Z,107.50
2019-01-04T18:08:58.975Z,129.23
2019-01-04T18:11:40.556Z,93.53
2019-01-04T18:14:21.175Z,87.83
2019-01-04T18:17:03.061Z,99.20
2019-01-04T18:19:44.109Z,76.03
2019-01-04T18:22:25.130Z,76.87
2019-01-04T18:25:04.949Z,74.73
2019-01-04T18:27:45.994Z,92.07
2019-01-04T18:30:27.452Z,78.27
2019-01-04T18:33:08.758Z,65.60
2019-01-04T18:35:50.026Z,60.77
2019-01-04T18:38:30.802Z,56.03
2019-01-04T18:41:12.776Z,52.97
2019-01-04T18:43:54.335Z,51.70
2019-01-04T18:46:36.077Z,53.67
2019-01-04T18:49:17.120Z,52.37
2019-01-04T18:51:59.060Z,57.70
2019-01-04T18:54:39.968Z,53.47
2019-01-04T18:57:22.363Z,61.20
2019-01-04T19:00:03.445Z,61.83
2019-01-04T19:02:45.305Z,62.10
2019-01-04T19:05:26.412Z,58.80
2019-01-04T19:08:08.222Z,65.43
2019-01-04T19:10:49.580Z,70.27
2019-01-04T19:13:32.775Z,77.23
2019-01-04T19:16:14.100Z,72.20
2019-01-04T19:18:55.346Z,73.37
2019-01-04T19:21:36.613Z,68.10
2019-01-04T19:24:18.615Z,61.13
2019-01-04T19:26:59.520Z,57.67
2019-01-04T19:29:41.272Z,52.73
2019-01-04T19:32:22.152Z,51.73
2019-01-04T19:35:03.630Z,51.13
2019-01-04T19:37:44.880Z,51.87
2019-01-04T19:40:26.356Z,50.40
2019-01-04T19:43:07.884Z,49.53
2019-01-04T19:45:49.367Z,54.27
2019-01-04T19:48:30.911Z,49.03
2019-01-04T19:51:11.134Z,51.57
2019-01-04T19:53:52.327Z,59.57
2019-01-04T19:56:34.286Z,49.30
2019-01-04T19:59:16.223Z,51.43
2019-01-04T20:01:57.515Z,52.63
2019-01-04T20:04:38.697Z,53.70
2019-01-04T20:07:39.043Z,49.43
2019-01-04T20:10:38.852Z,54.13
2019-01-04T20:13:39.862Z,53.03
2019-01-04T20:16:39.466Z,52.67
2019-01-04T20:19:42.592Z,52.60
2019-01-04T20:22:44.032Z,51.50
2019-01-04T20:25:47.165Z,49.80
2019-01-04T20:28:47.011Z,57.43
2019-01-04T20:31:46.959Z,54.40
2019-01-04T20:34:47.252Z,53.50
2019-01-04T20:37:47.677Z,48.80
2019-01-04T20:40:48.091Z,56.57
2019-01-04T20:43:48.562Z,50.00
2019-01-04T20:46:51.420Z,56.47
2019-01-04T20:49:51.927Z,51.50
2019-01-04T20:52:51.901Z,55.20
2019-01-04T20:55:52.320Z,47.27
2019-01-04T20:58:52.726Z,52.97
2019-01-04T21:01:52.663Z,49.10
2019-01-04T21:04:52.470Z,50.67
2019-01-04T21:07:53.150Z,52.93
2019-01-04T21:10:56.013Z,54.43
2019-01-04T21:13:55.958Z,52.50
2019-01-04T21:16:56.139Z,57.80
2019-01-04T21:20:02.600Z,50.70
2019-01-04T21:23:03.003Z,57.23
2019-01-04T21:26:08.787Z,53.10
2019-01-04T21:29:08.778Z,57.43
2019-01-04T21:32:14.306Z,57.97
2019-01-04T21:35:14.019Z,57.77
2019-01-04T21:38:14.774Z,70.30
2019-01-04T21:41:14.596Z,63.13
2019-01-04T21:47:35.758Z,54.60
2019-01-04T21:50:35.396Z,59.33
2019-01-04T21:56:50.800Z,53.13
2019-01-04T21:59:50.456Z,55.07
2019-01-04T22:02:50.935Z,48.93
2019-01-04T22:05:50.853Z,52.30
2019-01-04T22:08:54.134Z,51.70
2019-01-04T22:11:54.123Z,50.30
2019-01-04T22:14:59.424Z,49.80
2019-01-04T22:18:02.062Z,46.13
2019-01-04T22:21:02.161Z,50.30
2019-01-04T22:24:01.786Z,52.37
2019-01-04T22:27:01.800Z,57.63
2019-01-04T22:30:02.288Z,59.33
2019-01-04T22:36:20.175Z,56.50
2019-01-04T22:39:25.406Z,62.03
2019-01-04T22:45:37.453Z,51.97
2019-01-04T22:48:43.328Z,55.57
2019-01-04T22:51:43.602Z,53.70
2019-01-04T22:54:43.397Z,56.43
2019-01-04T22:57:46.318Z,60.83
2019-01-04T23:00:46.099Z,58.63
2019-01-04T23:03:48.810Z,60.20
2019-01-04T23:06:48.409Z,56.40
2019-01-04T23:09:48.634Z,53.13
2019-01-04T23:12:48.563Z,55.63
2019-01-04T23:15:45.947Z,57.83
2019-01-04T23:18:47.292Z,50.27
2019-01-04T23:21:47.727Z,56.40
2019-01-04T23:24:47.797Z,51.73
2019-01-04T23:27:47.588Z,55.53
2019-01-04T23:30:48.222Z,63.37
2019-01-04T23:33:48.657Z,59.87
2019-01-04T23:36:48.621Z,49.90
2019-01-04T23:39:48.827Z,61.07
2019-01-04T23:42:48.647Z,56.67
2019-01-04T23:45:46.459Z,55.33
2019-01-04T23:48:46.599Z,59.30
2019-01-04T23:51:46.916Z,59.33
2019-01-04T23:54:46.704Z,55.20
2019-01-04T23:57:47.080Z,61.77
